CheckWX is a tool to help pilots better visualize weather data.  It is not intended as a substitute for an official pre-flight weather briefing.

00:07:02 UTC

KGMJ METAR
Grove Municipal Airport
Grove, Oklahoma, USA
Current

12 mins ago

KGMJ 182355Z AUTO 15006KT 10SM CLR 17/07 A2975 RMK AO2
Observed
Oct-18 @ 23:55 UTC
Wind
  • 150° at 6 KTS
Visibility
10 SM
Flight Rules
VFR
Cloud Levels
  • Clear skies
Temperature
17°C / 63°F
Dewpoint
C / 45°F
Humidity
52%
Altimeter
29.75" Hg
Pressure
1007.42 hPa
Previous

32 mins ago

KGMJ 182335Z AUTO 16009KT 10SM CLR 18/07 A2976 RMK AO2
Observed
Oct-18 @ 23:35 UTC
Wind
  • 160° at 9 KTS
Visibility
10 SM
Flight Rules
VFR
Cloud Levels
  • Clear skies
Temperature
18°C / 64°F
Dewpoint
C / 45°F
Humidity
49%
Altimeter
29.76" Hg
Pressure
1007.82 hPa
Previous

52 mins ago

KGMJ 182315Z AUTO 15009G16KT 10SM CLR 19/07 A2976 RMK AO2
Observed
Oct-18 @ 23:15 UTC
Wind
  • 150° at 9 KTS
  • Gusting to 16 KTS
Visibility
10 SM
Flight Rules
VFR
Cloud Levels
  • Clear skies
Temperature
19°C / 66°F
Dewpoint
C / 45°F
Humidity
46%
Altimeter
29.76" Hg
Pressure
1007.82 hPa